Time;durP1;ratioP1;P1;durP2;ratioP2;P2;SDS_P1;SDS_P2;PMS_P1;PMS_P2;Temp;Humidity;BMP_temperature;BMP_pressure;BME280_temperature;BME280_humidity;BME280_pressure;Samples;Min_cycle;Max_cycle;Signal;HPM_P1;HPM_P2
2022/04/17 00:00:55;;;;;;;27.95;25.25;;;19.70;45.80;;;;;;5086584;27;43501;-60
2022/04/17 00:03:22;;;;;;;28.02;25.13;;;19.70;45.70;;;;;;5095376;27;43623;-59
2022/04/17 00:05:53;;;;;;;28.65;25.73;;;19.70;45.90;;;;;;5091433;27;44107;-59
2022/04/17 00:08:20;;;;;;;29.25;26.17;;;19.70;45.80;;;;;;5087037;27;43434;-60
2022/04/17 00:10:47;;;;;;;28.77;25.67;;;19.70;45.90;;;;;;5081116;27;43465;-59
2022/04/17 00:13:15;;;;;;;29.98;26.80;;;19.70;46.00;;;;;;5095361;27;43500;-60
2022/04/17 00:15:43;;;;;;;32.88;29.40;;;19.70;45.80;;;;;;5084320;27;43772;-60
2022/04/17 00:18:11;;;;;;;30.02;26.75;;;19.60;45.80;;;;;;5086240;27;43715;-60
2022/04/17 00:20:39;;;;;;;31.55;28.35;;;19.60;45.90;;;;;;5095728;27;43425;-59
2022/04/17 00:23:07;;;;;;;31.65;28.40;;;19.60;45.90;;;;;;5087220;27;43466;-59
2022/04/17 00:25:34;;;;;;;33.08;29.55;;;19.60;46.00;;;;;;5088384;27;44991;-60
2022/04/17 00:28:02;;;;;;;32.70;29.08;;;19.60;46.00;;;;;;5085962;27;43524;-59
2022/04/17 00:30:29;;;;;;;35.25;31.65;;;19.60;46.10;;;;;;5095590;27;43458;-60
2022/04/17 00:32:56;;;;;;;33.63;30.02;;;19.50;45.80;;;;;;5093619;27;43481;-59
2022/04/17 00:35:25;;;;;;;33.92;30.33;;;19.60;45.90;;;;;;5085437;27;44082;-60
2022/04/17 00:37:52;;;;;;;33.42;30.00;;;19.50;46.10;;;;;;5100486;27;44106;-59
2022/04/17 00:40:20;;;;;;;34.88;31.27;;;19.50;46.20;;;;;;5090694;27;44298;-59
2022/04/17 00:42:48;;;;;;;35.00;31.40;;;19.50;46.00;;;;;;5073471;27;43693;-60
2022/04/17 00:45:15;;;;;;;36.00;32.20;;;19.50;46.00;;;;;;5086131;27;43900;-59
2022/04/17 00:47:42;;;;;;;37.03;33.10;;;19.50;46.20;;;;;;5083661;27;43478;-61
2022/04/17 00:50:10;;;;;;;36.75;33.03;;;19.50;46.10;;;;;;5095352;27;43481;-60
2022/04/17 00:52:38;;;;;;;37.30;33.45;;;19.50;46.10;;;;;;5092070;27;43499;-60
2022/04/17 00:55:07;;;;;;;38.47;34.42;;;19.40;46.20;;;;;;5085401;27;45294;-59
2022/04/17 00:57:35;;;;;;;37.08;33.38;;;19.40;46.10;;;;;;5091968;27;44132;-59
2022/04/17 01:00:05;;;;;;;38.55;34.50;;;19.40;46.00;;;;;;5095998;27;43455;-61
2022/04/17 01:02:32;;;;;;;39.07;35.07;;;19.40;46.20;;;;;;5088203;27;43588;-60
2022/04/17 01:05:00;;;;;;;39.10;34.97;;;19.40;46.30;;;;;;5084644;27;45151;-59
2022/04/17 01:07:27;;;;;;;38.50;34.50;;;19.40;46.20;;;;;;5092189;27;44157;-59
2022/04/17 01:09:56;;;;;;;37.03;33.25;;;19.40;46.10;;;;;;5083517;27;43972;-59
2022/04/17 01:12:23;;;;;;;37.03;33.35;;;19.30;46.20;;;;;;5086803;27;43657;-58
2022/04/17 01:14:51;;;;;;;38.30;34.40;;;19.30;46.10;;;;;;5083141;27;43898;-60
2022/04/17 01:17:19;;;;;;;40.78;36.60;;;19.30;46.10;;;;;;5092029;27;43580;-60
2022/04/17 01:19:47;;;;;;;38.80;34.83;;;19.30;46.20;;;;;;5095112;27;43498;-60
2022/04/17 01:22:14;;;;;;;40.60;36.67;;;19.30;46.00;;;;;;5087029;27;43495;-59
2022/04/17 01:27:30;;;;;;;38.10;34.20;;;19.20;46.20;;;;;;5082935;27;43527;-59
2022/04/17 01:29:57;;;;;;;40.35;36.15;;;19.20;46.40;;;;;;5092663;27;43431;-59
2022/04/17 01:32:25;;;;;;;39.72;35.55;;;19.20;46.10;;;;;;5087563;27;43623;-60
2022/04/17 01:34:52;;;;;;;38.90;35.05;;;19.20;46.20;;;;;;5086918;27;44119;-60
2022/04/17 01:37:19;;;;;;;40.47;36.47;;;19.20;46.10;;;;;;5099364;27;43971;-60
2022/04/17 01:40:19;;;;;;;39.22;35.33;;;19.20;46.20;;;;;;5091494;27;43421;-59
2022/04/17 01:42:47;;;;;;;38.85;34.85;;;19.10;46.30;;;;;;5083716;27;43620;-59
2022/04/17 01:45:15;;;;;;;40.10;36.10;;;19.10;46.10;;;;;;5098762;27;45039;-60
2022/04/17 01:47:42;;;;;;;39.58;35.53;;;19.10;46.10;;;;;;5096541;27;44003;-60
2022/04/17 01:50:09;;;;;;;39.17;35.10;;;19.10;46.10;;;;;;5089242;27;43506;-60
2022/04/17 01:52:37;;;;;;;38.33;34.42;;;19.10;46.20;;;;;;5086525;27;43554;-59
2022/04/17 01:55:04;;;;;;;39.28;35.38;;;19.10;46.30;;;;;;5097802;27;44885;-60
2022/04/17 01:57:31;;;;;;;38.63;34.72;;;19.10;46.20;;;;;;5059196;28;44045;-60
2022/04/17 01:59:59;;;;;;;37.28;33.38;;;19.00;46.10;;;;;;5072538;28;43450;-59
2022/04/17 02:02:26;;;;;;;39.05;35.05;;;19.00;46.40;;;;;;5109640;27;43540;-59
2022/04/17 02:04:55;;;;;;;37.88;34.00;;;19.00;46.30;;;;;;5098058;27;44090;-59
2022/04/17 02:07:22;;;;;;;38.45;34.53;;;19.00;46.20;;;;;;5091778;27;43516;-60
2022/04/17 02:09:49;;;;;;;38.15;34.15;;;19.00;46.10;;;;;;5087032;27;43615;-59
2022/04/17 02:12:16;;;;;;;37.22;33.42;;;19.00;46.20;;;;;;5094069;27;43625;-60
2022/04/17 02:14:44;;;;;;;38.17;34.13;;;19.00;46.10;;;;;;5080119;27;45166;-59
2022/04/17 02:17:11;;;;;;;35.97;32.47;;;19.00;46.40;;;;;;5089630;27;43470;-60
2022/04/17 02:19:38;;;;;;;36.88;33.03;;;19.00;46.40;;;;;;5085460;27;43502;-60
2022/04/17 02:22:05;;;;;;;37.35;33.50;;;18.90;46.30;;;;;;5093812;27;43607;-60
2022/04/17 02:24:33;;;;;;;37.92;34.00;;;19.00;46.30;;;;;;5083318;27;44065;-60
2022/04/17 02:27:01;;;;;;;35.30;31.67;;;18.90;46.20;;;;;;5087864;27;43955;-59
2022/04/17 02:29:29;;;;;;;35.75;32.08;;;18.90;46.20;;;;;;5093470;27;43443;-60
2022/04/17 02:31:56;;;;;;;36.22;32.53;;;18.90;46.20;;;;;;5093489;27;43502;-60
2022/04/17 02:34:23;;;;;;;35.53;32.03;;;18.90;46.10;;;;;;5095383;27;44025;-59
2022/04/17 02:36:51;;;;;;;35.45;31.85;;;18.80;46.20;;;;;;5085921;27;43860;-59
2022/04/17 02:39:18;;;;;;;35.22;31.63;;;18.80;46.10;;;;;;5092551;27;43412;-59
2022/04/17 02:41:46;;;;;;;34.60;31.00;;;18.80;46.20;;;;;;5094353;27;44203;-59
2022/04/17 02:44:13;;;;;;;33.35;29.95;;;18.90;46.10;;;;;;5093241;27;44952;-59
2022/04/17 02:49:26;;;;;;;34.70;31.13;;;18.80;46.20;;;;;;5092677;27;43510;-60
2022/04/17 02:51:53;;;;;;;33.47;30.10;;;18.80;46.00;;;;;;5095031;27;43449;-59
2022/04/17 02:54:21;;;;;;;35.20;31.67;;;18.80;46.20;;;;;;5093861;27;44324;-59
2022/04/17 02:56:49;;;;;;;35.05;31.50;;;18.80;46.20;;;;;;5093163;27;44114;-59
2022/04/17 02:59:16;;;;;;;33.47;30.08;;;18.80;46.10;;;;;;5093860;27;43445;-60
2022/04/17 03:07:15;;;;;;;33.08;29.67;;;18.70;46.20;;;;;;5090436;27;43807;-59
2022/04/17 03:09:42;;;;;;;33.55;30.17;;;18.70;46.10;;;;;;5097247;27;43446;-60
2022/04/17 03:12:10;;;;;;;31.45;28.35;;;18.70;46.20;;;;;;5090293;27;43524;-59
2022/04/17 03:14:37;;;;;;;31.63;28.45;;;18.70;46.10;;;;;;5085015;27;44021;-59
2022/04/17 03:17:06;;;;;;;31.50;28.23;;;18.70;46.20;;;;;;5092386;27;43531;-59
2022/04/17 03:19:34;;;;;;;31.10;28.00;;;18.70;46.20;;;;;;5081606;27;43478;-59
2022/04/17 03:22:01;;;;;;;30.60;27.35;;;18.60;46.20;;;;;;5088086;27;43426;-59
2022/04/17 03:24:29;;;;;;;29.48;26.55;;;18.60;46.10;;;;;;5092040;27;45162;-59
2022/04/17 03:26:56;;;;;;;29.98;26.98;;;18.60;46.10;;;;;;5092669;27;44335;-59
2022/04/17 03:29:24;;;;;;;28.50;25.63;;;18.60;46.10;;;;;;5081956;27;43418;-59
2022/04/17 03:31:51;;;;;;;31.23;27.95;;;18.60;46.10;;;;;;5086384;27;43485;-59
2022/04/17 03:34:18;;;;;;;29.55;26.55;;;18.60;46.20;;;;;;5085228;27;44959;-59
2022/04/17 03:36:48;;;;;;;28.45;25.55;;;18.60;46.10;;;;;;5093711;27;43484;-60
2022/04/17 03:39:15;;;;;;;29.35;26.45;;;18.60;46.10;;;;;;5084228;27;43426;-59
2022/04/17 03:41:42;;;;;;;29.02;25.92;;;18.60;46.10;;;;;;5087907;27;43487;-59
2022/04/17 03:44:10;;;;;;;27.92;25.15;;;18.60;46.10;;;;;;5091203;27;43853;-59
2022/04/17 03:46:38;;;;;;;27.77;24.88;;;18.50;46.10;;;;;;5092646;27;43585;-59
2022/04/17 03:49:05;;;;;;;26.83;24.20;;;18.50;46.20;;;;;;5089432;27;43507;-59
2022/04/17 03:51:32;;;;;;;27.15;24.55;;;18.50;46.10;;;;;;5092060;27;43529;-60
2022/04/17 03:53:59;;;;;;;27.48;24.58;;;18.50;46.20;;;;;;5092395;27;44943;-59
2022/04/17 03:56:27;;;;;;;27.30;24.58;;;18.50;46.20;;;;;;5091676;27;44110;-59
2022/04/17 03:58:55;;;;;;;25.15;22.65;;;18.50;46.00;;;;;;5089798;27;43456;-59
2022/04/17 04:01:22;;;;;;;25.30;22.70;;;18.50;46.20;;;;;;5092137;27;43600;-59
2022/04/17 04:03:50;;;;;;;24.92;22.42;;;18.50;46.00;;;;;;5093031;27;43763;-59
2022/04/17 04:06:17;;;;;;;24.88;22.42;;;18.50;46.00;;;;;;5090379;27;44229;-60
2022/04/17 04:08:44;;;;;;;24.15;21.73;;;18.50;46.20;;;;;;5088079;27;43508;-60
2022/04/17 04:11:11;;;;;;;22.40;20.10;;;18.40;46.10;;;;;;5091928;27;43495;-61
2022/04/17 04:13:39;;;;;;;22.83;20.50;;;18.40;46.10;;;;;;5083560;28;44900;-60
2022/04/17 04:16:06;;;;;;;21.85;19.65;;;18.40;46.00;;;;;;5089370;27;43930;-59
2022/04/17 04:18:34;;;;;;;21.98;19.85;;;18.40;46.00;;;;;;5084049;27;44105;-59
2022/04/17 04:21:01;;;;;;;23.23;20.90;;;18.40;46.00;;;;;;5091877;27;43983;-59
2022/04/17 04:23:35;;;;;;;21.42;19.27;;;18.40;46.00;;;;;;5084318;27;45008;-60
2022/04/17 04:26:04;;;;;;;21.25;19.13;;;18.40;46.00;;;;;;5089565;27;44077;-59
2022/04/17 04:28:36;;;;;;;20.98;18.85;;;18.40;45.90;;;;;;5089540;27;43531;-60
2022/04/17 04:31:05;;;;;;;20.70;18.60;;;18.40;45.90;;;;;;5093598;27;43383;-60
2022/04/17 04:33:34;;;;;;;20.08;18.13;;;18.40;46.00;;;;;;5090004;27;43903;-59
2022/04/17 04:36:04;;;;;;;19.67;17.60;;;18.40;45.90;;;;;;5087569;27;43986;-60
2022/04/17 04:38:31;;;;;;;20.08;18.08;;;18.40;46.00;;;;;;5089104;27;43527;-59
2022/04/17 04:40:59;;;;;;;18.45;16.70;;;18.30;45.90;;;;;;5092095;27;44464;-59
2022/04/17 04:43:27;;;;;;;19.70;17.70;;;18.30;45.90;;;;;;5088820;27;45193;-60
2022/04/17 04:46:06;;;;;;;19.00;17.10;;;18.30;46.00;;;;;;5086456;27;43572;-60
2022/04/17 04:51:26;;;;;;;18.15;16.35;;;18.30;45.90;;;;;;5087853;27;43422;-60
2022/04/17 04:53:55;;;;;;;17.17;15.43;;;18.30;45.90;;;;;;5090527;27;44830;-60
2022/04/17 04:56:23;;;;;;;17.23;15.48;;;18.30;45.90;;;;;;5091967;27;43462;-60
2022/04/17 04:58:50;;;;;;;16.70;15.07;;;18.30;45.80;;;;;;5094371;27;43508;-60
2022/04/17 05:01:18;;;;;;;16.65;14.95;;;18.30;45.90;;;;;;5094532;27;43555;-59
2022/04/17 05:03:46;;;;;;;15.98;14.27;;;18.30;45.90;;;;;;5078527;27;43828;-59
2022/04/17 05:06:13;;;;;;;15.25;13.80;;;18.30;45.90;;;;;;5080344;27;43987;-59
2022/04/17 05:08:40;;;;;;;15.68;14.10;;;18.30;45.80;;;;;;5095138;27;43470;-59
2022/04/17 05:11:08;;;;;;;15.68;14.10;;;18.20;45.90;;;;;;5093501;27;43500;-59
2022/04/17 05:13:35;;;;;;;15.02;13.52;;;18.20;45.90;;;;;;5090947;27;44748;-60
2022/04/17 05:16:03;;;;;;;15.60;13.90;;;18.20;45.90;;;;;;5094628;27;43415;-60
2022/04/17 05:18:31;;;;;;;15.05;13.55;;;18.20;45.80;;;;;;5094360;27;43429;-59
2022/04/17 05:20:58;;;;;;;15.18;13.68;;;18.20;45.80;;;;;;5092426;27;44323;-59
2022/04/17 05:23:29;;;;;;;14.50;13.00;;;18.20;45.80;;;;;;5104214;27;44399;-58
2022/04/17 05:25:59;;;;;;;14.60;13.02;;;18.20;45.80;;;;;;5097627;27;43678;-59
2022/04/17 05:28:28;;;;;;;13.95;12.35;;;18.20;45.80;;;;;;5094407;27;43425;-59
2022/04/17 05:30:56;;;;;;;14.32;12.82;;;18.20;45.90;;;;;;5091861;27;43471;-59
2022/04/17 05:33:24;;;;;;;13.70;12.30;;;18.20;45.90;;;;;;5103892;27;44972;-59
2022/04/17 05:35:52;;;;;;;13.90;12.00;;;18.10;45.80;;;;;;5093708;27;43416;-59
2022/04/17 05:38:22;;;;;;;13.68;12.27;;;18.20;45.90;;;;;;5093963;27;43455;-59
2022/04/17 05:40:51;;;;;;;13.30;11.63;;;18.10;45.80;;;;;;5090558;27;43526;-59
2022/04/17 05:43:20;;;;;;;12.98;11.60;;;18.10;45.80;;;;;;5091482;27;46202;-61
2022/04/17 05:45:48;;;;;;;13.50;12.10;;;18.10;45.80;;;;;;5095884;27;43530;-59
2022/04/17 05:48:16;;;;;;;12.45;11.15;;;18.10;45.80;;;;;;5091547;27;43469;-60
2022/04/17 05:50:44;;;;;;;13.43;11.70;;;18.10;45.90;;;;;;5090587;27;43918;-61
2022/04/17 05:53:11;;;;;;;14.38;12.40;;;18.00;46.10;;;;;;5097660;27;44811;-59
2022/04/17 05:55:40;;;;;;;12.93;11.52;;;18.00;46.00;;;;;;5084048;27;44259;-60
2022/04/17 05:58:07;;;;;;;12.20;11.00;;;18.00;46.10;;;;;;5090398;27;43434;-60
2022/04/17 06:00:35;;;;;;;11.95;10.65;;;18.00;46.30;;;;;;5081579;27;43522;-59
2022/04/17 06:03:05;;;;;;;11.35;10.25;;;18.10;46.20;;;;;;5095930;27;44317;-60
2022/04/17 06:05:32;;;;;;;12.63;10.98;;;18.10;46.00;;;;;;5096244;27;43501;-61
2022/04/17 06:08:00;;;;;;;12.27;11.13;;;18.20;46.00;;;;;;5086655;27;43434;-59
2022/04/17 06:10:27;;;;;;;12.05;10.85;;;18.30;46.00;;;;;;5089385;27;43520;-59
2022/04/17 06:12:54;;;;;;;11.77;10.57;;;18.40;45.90;;;;;;5091267;27;43877;-60
2022/04/17 06:15:23;;;;;;;11.07;9.88;;;18.50;45.80;;;;;;5092410;27;44312;-58
2022/04/17 06:17:50;;;;;;;11.07;9.35;;;18.60;45.50;;;;;;5085635;27;43420;-61
2022/04/17 06:20:17;;;;;;;11.50;10.30;;;18.70;45.60;;;;;;5072804;27;43516;-60
2022/04/17 06:22:44;;;;;;;11.02;9.82;;;18.70;45.50;;;;;;5091705;27;44085;-60
2022/04/17 06:25:14;;;;;;;10.93;9.80;;;18.70;45.30;;;;;;5086114;27;44033;-60
2022/04/17 06:27:48;;;;;;;10.52;9.43;;;18.80;45.40;;;;;;5085352;27;43502;-60
2022/04/17 06:30:20;;;;;;;11.00;9.88;;;18.90;45.30;;;;;;5096126;27;43462;-59
2022/04/17 06:32:48;;;;;;;11.73;9.30;;;19.00;45.30;;;;;;5095663;27;44800;-60
2022/04/17 06:35:17;;;;;;;10.10;9.10;;;19.00;45.20;;;;;;5089065;27;43856;-60
2022/04/17 06:38:10;;;;;;;10.82;9.45;;;19.10;45.20;;;;;;5087100;27;43518;-60
2022/04/17 06:40:38;;;;;;;10.82;9.30;;;19.20;45.10;;;;;;5095983;27;43505;-59
2022/04/17 06:43:10;;;;;;;10.80;9.10;;;19.20;45.00;;;;;;5091584;27;43811;-60
2022/04/17 06:45:41;;;;;;;10.45;9.05;;;19.30;44.90;;;;;;5088620;27;44069;-60
2022/04/17 06:48:16;;;;;;;9.68;8.68;;;19.40;44.90;;;;;;5083603;27;43562;-60
2022/04/17 06:50:44;;;;;;;10.35;9.27;;;19.40;44.80;;;;;;5090323;27;43416;-60
2022/04/17 06:53:12;;;;;;;10.43;8.98;;;19.50;44.70;;;;;;5091024;27;44035;-61
2022/04/17 06:55:39;;;;;;;10.50;8.95;;;19.50;44.70;;;;;;5088355;27;43529;-61
2022/04/17 06:58:09;;;;;;;10.20;8.88;;;19.60;44.70;;;;;;5091392;27;43431;-60
2022/04/17 07:00:37;;;;;;;9.13;8.23;;;19.60;44.60;;;;;;5095627;27;44133;-59
2022/04/17 07:03:05;;;;;;;9.52;8.52;;;19.60;44.50;;;;;;5083367;27;44719;-60
2022/04/17 07:05:33;;;;;;;9.10;7.78;;;19.70;44.50;;;;;;5091203;27;43710;-60
2022/04/17 07:08:05;;;;;;;9.60;8.60;;;19.70;44.50;;;;;;5096741;27;43478;-61
2022/04/17 07:10:34;;;;;;;9.10;7.88;;;19.70;44.40;;;;;;5093371;27;43466;-60
2022/04/17 07:13:01;;;;;;;9.40;7.85;;;19.70;44.50;;;;;;5089140;27;46174;-61
2022/04/17 07:15:28;;;;;;;9.23;8.25;;;19.70;44.60;;;;;;5074410;27;43479;-59
2022/04/17 07:17:56;;;;;;;8.65;7.60;;;19.70;44.50;;;;;;5091781;27;43478;-59
2022/04/17 07:20:24;;;;;;;9.93;8.05;;;19.70;44.50;;;;;;5071109;28;43510;-60
2022/04/17 07:22:52;;;;;;;9.48;7.97;;;19.70;44.60;;;;;;5088511;27;44941;-60
2022/04/17 07:25:20;;;;;;;9.35;8.45;;;19.70;44.70;;;;;;5088835;27;43427;-61
2022/04/17 07:27:49;;;;;;;9.23;7.40;;;19.70;44.70;;;;;;5096481;27;43489;-60
2022/04/17 07:30:22;;;;;;;10.48;7.60;;;19.70;44.80;;;;;;5089972;27;43543;-61
2022/04/17 07:32:54;;;;;;;8.27;7.43;;;19.70;44.80;;;;;;5087703;27;44058;-61
2022/04/17 07:35:23;;;;;;;8.50;7.25;;;19.70;44.70;;;;;;5088756;27;43507;-59
2022/04/17 07:37:52;;;;;;;7.88;7.07;;;19.70;44.70;;;;;;5096248;27;43437;-61
2022/04/17 07:40:28;;;;;;;8.32;7.07;;;19.70;44.70;;;;;;5067259;28;43691;-60
2022/04/17 07:43:01;;;;;;;7.95;7.15;;;19.80;44.80;;;;;;5089728;27;43888;-60
2022/04/17 07:45:29;;;;;;;7.30;6.57;;;19.80;44.70;;;;;;5095308;27;43470;-60
2022/04/17 07:47:57;;;;;;;8.82;7.32;;;19.90;44.70;;;;;;5092978;27;43517;-60
2022/04/17 07:50:27;;;;;;;8.25;6.90;;;20.00;44.60;;;;;;5089515;27;43483;-60
2022/04/17 07:52:54;;;;;;;7.72;6.70;;;20.00;44.60;;;;;;5089621;27;44200;-60
2022/04/17 07:55:22;;;;;;;7.63;6.38;;;20.10;44.50;;;;;;5098834;27;43908;-61
2022/04/17 07:58:01;;;;;;;8.07;6.88;;;20.20;44.40;;;;;;5088405;27;43511;-60
2022/04/17 08:00:35;;;;;;;9.18;7.20;;;20.20;44.40;;;;;;5089126;27;44057;-60
2022/04/17 08:03:20;;;;;;;7.97;6.50;;;20.20;44.40;;;;;;5094933;27;45103;-60
2022/04/17 08:05:50;;;;;;;8.02;6.95;;;20.30;44.40;;;;;;5091818;27;44024;-59
2022/04/17 08:08:19;;;;;;;7.05;6.00;;;20.30;44.50;;;;;;5090295;27;43475;-59
2022/04/17 08:10:46;;;;;;;7.28;6.43;;;20.30;44.40;;;;;;5095846;27;43604;-60
2022/04/17 08:13:15;;;;;;;8.55;6.20;;;20.40;44.40;;;;;;5096276;27;45093;-61
2022/04/17 08:15:42;;;;;;;8.77;6.50;;;20.40;44.60;;;;;;5090607;27;43549;-60
2022/04/17 08:18:10;;;;;;;6.82;5.97;;;20.40;44.50;;;;;;5088738;27;43464;-60
2022/04/17 08:20:37;;;;;;;6.85;6.03;;;20.40;44.50;;;;;;5082641;27;43476;-61
2022/04/17 08:23:05;;;;;;;9.25;5.97;;;20.50;44.50;;;;;;5079537;27;44097;-60
2022/04/17 08:25:35;;;;;;;7.45;6.32;;;20.60;45.10;;;;;;5081210;27;43892;-59
2022/04/17 08:28:02;;;;;;;6.20;5.60;;;20.70;45.30;;;;;;5081573;27;44126;-60
2022/04/17 08:30:31;;;;;;;8.40;5.85;;;20.70;44.60;;;;;;5081565;27;43616;-60
2022/04/17 08:33:01;;;;;;;6.50;5.55;;;20.80;44.50;;;;;;5078002;27;44940;-60
2022/04/17 08:35:29;;;;;;;5.95;5.35;;;20.90;44.30;;;;;;5087585;27;43492;-58
2022/04/17 08:38:04;;;;;;;6.28;5.57;;;21.10;44.80;;;;;;5084529;28;43401;-60
2022/04/17 08:40:32;;;;;;;6.65;5.68;;;21.10;44.30;;;;;;5090637;27;44083;-59
2022/04/17 08:43:00;;;;;;;5.47;4.80;;;21.20;44.30;;;;;;5086438;27;44613;-60
2022/04/17 08:45:27;;;;;;;7.85;5.55;;;21.20;44.40;;;;;;5085356;27;43756;-60
2022/04/17 08:47:56;;;;;;;7.35;5.20;;;21.30;44.30;;;;;;5087827;27;43511;-60
2022/04/17 08:50:23;;;;;;;8.13;5.30;;;21.40;44.40;;;;;;5087180;27;43528;-59
2022/04/17 08:52:52;;;;;;;5.65;5.07;;;21.40;44.30;;;;;;5081043;27;44673;-59
2022/04/17 08:55:20;;;;;;;8.77;5.07;;;21.50;44.30;;;;;;5084947;27;43732;-60
2022/04/17 08:57:48;;;;;;;8.00;5.10;;;21.60;44.50;;;;;;5086977;27;43447;-59
2022/04/17 09:00:20;;;;;;;6.28;4.90;;;21.70;44.60;;;;;;5089954;27;43601;-60
2022/04/17 09:02:49;;;;;;;6.43;4.60;;;21.80;44.80;;;;;;5086251;27;44923;-60
2022/04/17 09:05:18;;;;;;;10.90;4.82;;;21.90;44.30;;;;;;5084140;28;43779;-60
2022/04/17 09:07:51;;;;;;;8.27;4.38;;;22.00;44.40;;;;;;5084654;27;43478;-60
2022/04/17 09:10:31;;;;;;;5.90;4.30;;;22.10;44.50;;;;;;5087212;27;43620;-60
2022/04/17 09:13:00;;;;;;;7.18;4.40;;;22.20;44.30;;;;;;5082767;28;44858;-59
2022/04/17 09:15:31;;;;;;;5.60;4.43;;;22.20;44.20;;;;;;5084796;27;43525;-60
2022/04/17 09:17:59;;;;;;;;;;;22.30;44.20;;;;;;5085826;27;43514;-59
2022/04/17 09:20:27;;;;;;;5.65;4.07;;;22.40;44.00;;;;;;5084235;27;43482;-59
2022/04/17 09:23:01;;;;;;;7.80;4.30;;;22.40;44.00;;;;;;5084319;27;44788;-59
2022/04/17 09:25:29;;;;;;;6.22;4.13;;;22.50;43.70;;;;;;5084298;27;43549;-59
2022/04/17 09:28:01;;;;;;;4.63;3.60;;;22.50;44.00;;;;;;5082435;27;43593;-60
2022/04/17 09:30:47;;;;;;;5.97;4.20;;;22.50;43.90;;;;;;5082424;27;43460;-60
2022/04/17 09:33:14;;;;;;;5.45;3.80;;;22.60;43.80;;;;;;5078672;27;44940;-59
2022/04/17 09:35:54;;;;;;;5.72;3.70;;;22.60;43.50;;;;;;5089685;27;44336;-60
2022/04/17 09:38:28;;;;;;;5.60;3.88;;;22.70;44.10;;;;;;5081622;27;43506;-60
2022/04/17 09:41:10;;;;;;;4.95;3.70;;;22.70;43.40;;;;;;5083269;27;43628;-60
2022/04/17 09:43:37;;;;;;;5.63;3.50;;;22.80;44.00;;;;;;5081536;27;44049;-60
2022/04/17 09:46:06;;;;;;;4.60;3.20;;;22.80;43.30;;;;;;5082458;27;44025;-61
2022/04/17 09:48:38;;;;;;;5.85;3.53;;;22.80;43.20;;;;;;5082266;27;43523;-60
2022/04/17 09:51:23;;;;;;;5.68;3.60;;;22.80;43.30;;;;;;5082634;27;43609;-60
2022/04/17 09:53:56;;;;;;;6.60;3.28;;;22.80;43.30;;;;;;5082949;27;44989;-60
2022/04/17 09:56:55;;;;;;;4.00;2.88;;;22.80;43.30;;;;;;5082817;27;43785;-59
2022/04/17 09:59:24;;;;;;;4.68;3.63;;;22.70;43.40;;;;;;5081962;27;43498;-60
2022/04/17 10:01:53;;;;;;;5.68;3.08;;;22.60;43.30;;;;;;5081616;27;43552;-61
2022/04/17 10:04:24;;;;;;;4.65;3.15;;;22.60;43.40;;;;;;5072214;27;45065;-60
2022/04/17 10:06:59;;;;;;;6.15;3.40;;;22.60;43.40;;;;;;5082100;27;44086;-60
2022/04/17 10:09:26;;;;;;;3.13;2.70;;;22.50;43.50;;;;;;5082921;27;43505;-60
2022/04/17 10:11:59;;;;;;;4.10;2.67;;;22.50;43.40;;;;;;5082277;27;44081;-60
2022/04/17 10:14:28;;;;;;;3.70;2.85;;;22.40;43.50;;;;;;5081297;27;43895;-60
2022/04/17 10:16:58;;;;;;;3.75;2.83;;;22.40;43.60;;;;;;5081686;28;43615;-60
2022/04/17 10:19:27;;;;;;;4.20;2.92;;;22.30;43.60;;;;;;5083266;27;43498;-59
2022/04/17 10:21:59;;;;;;;4.50;2.90;;;22.30;43.70;;;;;;5081419;27;44047;-59
2022/04/17 10:24:26;;;;;;;2.90;2.60;;;22.20;43.70;;;;;;5087566;27;45124;-60
2022/04/17 10:26:54;;;;;;;3.38;2.70;;;22.20;43.80;;;;;;5082175;27;43561;-59
2022/04/17 10:29:33;;;;;;;3.30;2.67;;;22.20;44.00;;;;;;5082109;27;43416;-60
2022/04/17 10:32:32;;;;;;;4.15;2.88;;;22.10;44.00;;;;;;5081476;27;43530;-60
2022/04/17 10:35:32;;;;;;;3.88;2.72;;;22.10;44.00;;;;;;5079073;27;43973;-60
2022/04/17 10:38:25;;;;;;;4.32;3.05;;;22.10;44.20;;;;;;5081581;27;43501;-59
2022/04/17 10:41:02;;;;;;;3.03;2.50;;;22.10;44.20;;;;;;5081782;27;43526;-59
2022/04/17 10:43:48;;;;;;;2.97;2.67;;;22.00;44.10;;;;;;5081465;28;43800;-59
2022/04/17 10:46:16;;;;;;;2.70;2.38;;;21.90;44.20;;;;;;5047396;27;43914;-60
2022/04/17 10:48:47;;;;;;;3.05;2.70;;;21.90;44.20;;;;;;4987813;28;43566;-60
2022/04/17 10:51:20;;;;;;;5.53;2.67;;;21.90;44.20;;;;;;4988796;28;43468;-59
2022/04/17 10:53:56;;;;;;;3.30;2.38;;;21.90;44.30;;;;;;4988524;28;43530;-59
2022/04/17 10:56:24;;;;;;;2.60;2.40;;;21.80;44.20;;;;;;4987635;28;44962;-59
2022/04/17 10:58:53;;;;;;;4.55;2.42;;;21.80;44.20;;;;;;4987534;28;43501;-60
2022/04/17 11:01:51;;;;;;;2.90;2.60;;;21.80;44.20;;;;;;5052774;28;43550;-59
2022/04/17 11:04:25;;;;;;;2.60;2.40;;;21.80;44.20;;;;;;5003024;27;43576;-59
2022/04/17 11:06:56;;;;;;;3.25;2.38;;;21.80;44.30;;;;;;4990388;28;44813;-59
2022/04/17 11:09:24;;;;;;;2.78;2.58;;;21.80;44.40;;;;;;5056040;28;43470;-60
2022/04/17 11:11:52;;;;;;;3.70;2.40;;;21.80;44.30;;;;;;5070607;27;43505;-59
2022/04/17 11:14:26;;;;;;;2.55;2.35;;;21.80;44.30;;;;;;4984443;28;43551;-59
2022/04/17 11:17:01;;;;;;;3.08;2.72;;;21.80;44.00;;;;;;4988744;27;45226;-59
2022/04/17 11:19:31;;;;;;;2.90;2.22;;;21.80;43.90;;;;;;4988635;28;44025;-59
2022/04/17 11:22:02;;;;;;;3.20;2.53;;;21.80;44.60;;;;;;4987352;28;43466;-60
2022/04/17 11:24:55;;;;;;;3.33;2.50;;;21.80;43.90;;;;;;4988296;28;43595;-60
2022/04/17 11:27:36;;;;;;;2.25;2.05;;;21.80;44.00;;;;;;4988299;28;44661;-61
2022/04/17 11:30:05;;;;;;;3.10;2.33;;;21.80;44.00;;;;;;4988187;28;43491;-58
2022/04/17 11:32:32;;;;;;;2.47;2.28;;;21.80;44.10;;;;;;5071525;27;43490;-60
2022/04/17 11:35:04;;;;;;;3.22;2.42;;;21.80;44.10;;;;;;4984440;28;43660;-60
2022/04/17 11:37:32;;;;;;;2.83;2.45;;;21.80;44.10;;;;;;4990034;28;44068;-60
2022/04/17 11:40:14;;;;;;;2.78;2.35;;;21.80;44.00;;;;;;4986763;28;43502;-61
2022/04/17 11:42:42;;;;;;;3.33;2.25;;;21.80;43.90;;;;;;4986592;27;43463;-60
2022/04/17 11:45:19;;;;;;;1.98;1.85;;;21.80;44.00;;;;;;4986984;28;43565;-60
2022/04/17 11:47:48;;;;;;;2.92;2.17;;;21.80;44.00;;;;;;4987550;28;43914;-60
2022/04/17 11:50:28;;;;;;;2.53;2.33;;;21.80;43.90;;;;;;4986987;28;44269;-61
2022/04/17 11:53:01;;;;;;;2.65;2.10;;;21.80;43.90;;;;;;4987503;28;43503;-60
2022/04/17 11:55:36;;;;;;;2.03;1.90;;;21.80;43.80;;;;;;4987711;28;43517;-59
2022/04/17 11:58:08;;;;;;;2.42;2.22;;;21.80;43.80;;;;;;4986691;28;44218;-59
2022/04/17 12:00:40;;;;;;;2.47;1.90;;;21.80;43.70;;;;;;4988166;28;43675;-60
2022/04/17 12:03:09;;;;;;;2.75;1.88;;;21.80;43.70;;;;;;5002805;27;43533;-59
2022/04/17 12:05:37;;;;;;;3.40;2.03;;;21.80;43.30;;;;;;4985305;28;43663;-60
2022/04/17 12:08:11;;;;;;;2.28;2.05;;;21.80;43.40;;;;;;4987159;27;44915;-58
2022/04/17 12:10:41;;;;;;;1.75;1.65;;;21.80;43.20;;;;;;4986721;28;43540;-60
2022/04/17 12:13:28;;;;;;;2.35;2.13;;;21.80;43.10;;;;;;4987530;28;43538;-59
2022/04/17 12:16:02;;;;;;;2.25;2.05;;;21.90;43.00;;;;;;4986986;28;43699;-59
2022/04/17 12:18:30;;;;;;;2.00;1.90;;;21.90;42.90;;;;;;4986343;28;44968;-60
2022/04/17 12:20:59;;;;;;;2.20;2.00;;;21.90;42.80;;;;;;4984666;28;43537;-59
2022/04/17 12:23:29;;;;;;;2.63;2.42;;;21.90;42.80;;;;;;4988270;28;43523;-59
2022/04/17 12:25:59;;;;;;;2.58;2.28;;;21.90;42.50;;;;;;4986349;28;43652;-59
2022/04/17 12:28:27;;;;;;;2.08;1.88;;;21.90;42.30;;;;;;4986356;28;44931;-58
2022/04/17 12:30:55;;;;;;;2.75;2.15;;;21.90;42.40;;;;;;5069286;27;43426;-59
2022/04/17 12:33:27;;;;;;;2.00;1.90;;;21.90;42.20;;;;;;4987085;28;43575;-59
2022/04/17 12:36:11;;;;;;;2.05;1.88;;;21.90;42.50;;;;;;4982749;28;43630;-60
2022/04/17 12:38:40;;;;;;;2.28;2.08;;;21.90;42.20;;;;;;4986694;28;44011;-61
2022/04/17 12:41:28;;;;;;;2.08;1.98;;;21.90;42.40;;;;;;4985390;28;43448;-58
2022/04/17 12:43:56;;;;;;;2.40;2.20;;;22.00;42.20;;;;;;4986536;28;43533;-59
2022/04/17 12:46:30;;;;;;;1.88;1.70;;;22.00;42.70;;;;;;4986248;28;43571;-59
2022/04/17 12:49:05;;;;;;;2.22;1.92;;;22.00;42.60;;;;;;4986291;28;44977;-59
2022/04/17 12:51:34;;;;;;;1.95;1.85;;;22.00;42.50;;;;;;4985107;28;43841;-59
2022/04/17 12:54:02;;;;;;;2.00;1.65;;;22.00;42.70;;;;;;4985964;28;43510;-60
2022/04/17 12:56:29;;;;;;;2.10;1.75;;;22.00;42.70;;;;;;5069465;27;44056;-59
2022/04/17 12:58:59;;;;;;;2.22;1.90;;;22.00;42.30;;;;;;4986082;27;44811;-60
2022/04/17 13:01:29;;;;;;;1.90;1.73;;;22.00;42.30;;;;;;5067986;27;43910;-59
2022/04/17 13:04:20;;;;;;;2.77;2.23;;;22.10;42.50;;;;;;4985805;28;43528;-60
2022/04/17 13:07:04;;;;;;;2.70;1.98;;;22.10;42.50;;;;;;4985508;28;43467;-60